sensor_id;sensor_type;location;lat;lon;timestamp;P1;durP1;ratioP1;P2;durP2;ratioP2
8514;SDS011;4295;51.024;7.000;2022-12-11T00:00:04;108.03;;;17.50;;
8514;SDS011;4295;51.024;7.000;2022-12-11T00:02:30;108.23;;;17.23;;
8514;SDS011;4295;51.024;7.000;2022-12-11T00:04:55;109.30;;;18.60;;
8514;SDS011;4295;51.024;7.000;2022-12-11T00:07:21;104.70;;;17.90;;
8514;SDS011;4295;51.024;7.000;2022-12-11T00:09:46;108.40;;;19.07;;
8514;SDS011;4295;51.024;7.000;2022-12-11T00:12:12;121.73;;;22.43;;
8514;SDS011;4295;51.024;7.000;2022-12-11T00:14:37;118.23;;;20.63;;
8514;SDS011;4295;51.024;7.000;2022-12-11T00:17:02;117.47;;;20.73;;
8514;SDS011;4295;51.024;7.000;2022-12-11T00:19:28;120.27;;;21.20;;
8514;SDS011;4295;51.024;7.000;2022-12-11T00:21:53;125.60;;;21.60;;
8514;SDS011;4295;51.024;7.000;2022-12-11T00:24:19;130.70;;;24.07;;
8514;SDS011;4295;51.024;7.000;2022-12-11T00:26:44;125.93;;;22.23;;
8514;SDS011;4295;51.024;7.000;2022-12-11T00:29:10;126.17;;;23.50;;
8514;SDS011;4295;51.024;7.000;2022-12-11T00:31:38;128.00;;;25.27;;
8514;SDS011;4295;51.024;7.000;2022-12-11T00:34:04;144.60;;;21.77;;
8514;SDS011;4295;51.024;7.000;2022-12-11T00:36:30;122.07;;;23.80;;
8514;SDS011;4295;51.024;7.000;2022-12-11T00:38:55;119.87;;;23.73;;
8514;SDS011;4295;51.024;7.000;2022-12-11T00:41:20;131.93;;;25.80;;
8514;SDS011;4295;51.024;7.000;2022-12-11T00:43:46;134.90;;;25.70;;
8514;SDS011;4295;51.024;7.000;2022-12-11T00:46:12;128.20;;;23.67;;
8514;SDS011;4295;51.024;7.000;2022-12-11T00:48:38;135.67;;;26.77;;
8514;SDS011;4295;51.024;7.000;2022-12-11T00:51:04;130.10;;;24.70;;
8514;SDS011;4295;51.024;7.000;2022-12-11T00:53:29;128.20;;;25.97;;
8514;SDS011;4295;51.024;7.000;2022-12-11T00:55:55;125.43;;;22.73;;
8514;SDS011;4295;51.024;7.000;2022-12-11T00:58:21;127.93;;;23.90;;
8514;SDS011;4295;51.024;7.000;2022-12-11T01:00:46;128.23;;;23.00;;
8514;SDS011;4295;51.024;7.000;2022-12-11T01:03:14;116.80;;;22.77;;
8514;SDS011;4295;51.024;7.000;2022-12-11T01:05:40;121.40;;;23.70;;
8514;SDS011;4295;51.024;7.000;2022-12-11T01:08:05;129.67;;;23.00;;
8514;SDS011;4295;51.024;7.000;2022-12-11T01:10:31;118.60;;;22.47;;
8514;SDS011;4295;51.024;7.000;2022-12-11T01:15:26;118.60;;;23.83;;
8514;SDS011;4295;51.024;7.000;2022-12-11T01:17:56;120.80;;;23.13;;
8514;SDS011;4295;51.024;7.000;2022-12-11T01:20:22;123.57;;;23.63;;
8514;SDS011;4295;51.024;7.000;2022-12-11T01:22:56;131.53;;;24.87;;
8514;SDS011;4295;51.024;7.000;2022-12-11T01:25:22;132.03;;;25.07;;
8514;SDS011;4295;51.024;7.000;2022-12-11T01:27:52;130.97;;;25.93;;
8514;SDS011;4295;51.024;7.000;2022-12-11T01:30:19;130.10;;;26.87;;
8514;SDS011;4295;51.024;7.000;2022-12-11T01:32:46;128.10;;;25.60;;
8514;SDS011;4295;51.024;7.000;2022-12-11T01:35:12;124.47;;;22.70;;
8514;SDS011;4295;51.024;7.000;2022-12-11T01:37:37;114.50;;;19.60;;
8514;SDS011;4295;51.024;7.000;2022-12-11T01:40:04;122.23;;;22.47;;
8514;SDS011;4295;51.024;7.000;2022-12-11T01:42:31;124.30;;;22.73;;
8514;SDS011;4295;51.024;7.000;2022-12-11T01:47:40;107.27;;;20.10;;
8514;SDS011;4295;51.024;7.000;2022-12-11T01:50:06;117.03;;;21.87;;
8514;SDS011;4295;51.024;7.000;2022-12-11T01:52:31;111.67;;;20.60;;
8514;SDS011;4295;51.024;7.000;2022-12-11T01:54:57;116.77;;;21.40;;
8514;SDS011;4295;51.024;7.000;2022-12-11T01:57:23;117.60;;;21.00;;
8514;SDS011;4295;51.024;7.000;2022-12-11T01:59:48;115.80;;;21.70;;
8514;SDS011;4295;51.024;7.000;2022-12-11T02:02:16;116.07;;;20.53;;
8514;SDS011;4295;51.024;7.000;2022-12-11T02:04:44;112.63;;;21.17;;
8514;SDS011;4295;51.024;7.000;2022-12-11T02:07:11;117.07;;;21.70;;
8514;SDS011;4295;51.024;7.000;2022-12-11T02:09:37;112.87;;;20.07;;
8514;SDS011;4295;51.024;7.000;2022-12-11T02:20:29;116.50;;;20.07;;
8514;SDS011;4295;51.024;7.000;2022-12-11T02:28:40;113.97;;;20.30;;
8514;SDS011;4295;51.024;7.000;2022-12-11T02:31:21;121.67;;;22.17;;
8514;SDS011;4295;51.024;7.000;2022-12-11T02:33:59;114.93;;;20.93;;
8514;SDS011;4295;51.024;7.000;2022-12-11T02:36:30;107.47;;;19.73;;
8514;SDS011;4295;51.024;7.000;2022-12-11T02:38:59;123.17;;;22.50;;
8514;SDS011;4295;51.024;7.000;2022-12-11T02:41:27;119.40;;;21.77;;
8514;SDS011;4295;51.024;7.000;2022-12-11T02:43:54;126.83;;;22.27;;
8514;SDS011;4295;51.024;7.000;2022-12-11T02:46:21;118.00;;;23.30;;
8514;SDS011;4295;51.024;7.000;2022-12-11T02:48:49;131.30;;;23.70;;
8514;SDS011;4295;51.024;7.000;2022-12-11T02:51:17;127.60;;;22.67;;
8514;SDS011;4295;51.024;7.000;2022-12-11T02:53:48;120.20;;;22.80;;
8514;SDS011;4295;51.024;7.000;2022-12-11T02:56:18;123.70;;;21.90;;
8514;SDS011;4295;51.024;7.000;2022-12-11T02:58:49;126.37;;;24.47;;
8514;SDS011;4295;51.024;7.000;2022-12-11T03:01:18;124.23;;;24.50;;
8514;SDS011;4295;51.024;7.000;2022-12-11T03:03:44;126.73;;;23.33;;
8514;SDS011;4295;51.024;7.000;2022-12-11T03:06:09;127.97;;;24.23;;
8514;SDS011;4295;51.024;7.000;2022-12-11T03:08:40;124.33;;;21.47;;
8514;SDS011;4295;51.024;7.000;2022-12-11T03:11:08;122.00;;;22.97;;
8514;SDS011;4295;51.024;7.000;2022-12-11T03:13:35;123.60;;;23.10;;
8514;SDS011;4295;51.024;7.000;2022-12-11T03:19:00;136.60;;;23.27;;
8514;SDS011;4295;51.024;7.000;2022-12-11T03:24:26;129.47;;;24.20;;
8514;SDS011;4295;51.024;7.000;2022-12-11T03:26:58;136.17;;;23.90;;
8514;SDS011;4295;51.024;7.000;2022-12-11T03:29:29;123.63;;;24.10;;
8514;SDS011;4295;51.024;7.000;2022-12-11T03:32:03;122.80;;;22.90;;
8514;SDS011;4295;51.024;7.000;2022-12-11T03:34:47;125.47;;;23.37;;
8514;SDS011;4295;51.024;7.000;2022-12-11T03:37:18;132.57;;;25.03;;
8514;SDS011;4295;51.024;7.000;2022-12-11T03:39:49;131.03;;;23.30;;
8514;SDS011;4295;51.024;7.000;2022-12-11T03:42:18;128.00;;;24.50;;
8514;SDS011;4295;51.024;7.000;2022-12-11T03:44:47;123.80;;;23.30;;
8514;SDS011;4295;51.024;7.000;2022-12-11T03:47:16;119.87;;;24.07;;
8514;SDS011;4295;51.024;7.000;2022-12-11T03:49:44;126.37;;;24.53;;
8514;SDS011;4295;51.024;7.000;2022-12-11T03:52:12;122.37;;;23.50;;
8514;SDS011;4295;51.024;7.000;2022-12-11T03:54:39;139.30;;;25.90;;
8514;SDS011;4295;51.024;7.000;2022-12-11T03:57:07;127.10;;;25.27;;
8514;SDS011;4295;51.024;7.000;2022-12-11T03:59:36;125.17;;;25.00;;
8514;SDS011;4295;51.024;7.000;2022-12-11T04:02:02;124.60;;;24.27;;
8514;SDS011;4295;51.024;7.000;2022-12-11T04:04:35;125.00;;;23.77;;
8514;SDS011;4295;51.024;7.000;2022-12-11T04:07:02;118.00;;;22.23;;
8514;SDS011;4295;51.024;7.000;2022-12-11T04:09:27;114.63;;;21.23;;
8514;SDS011;4295;51.024;7.000;2022-12-11T04:11:52;124.80;;;21.20;;
8514;SDS011;4295;51.024;7.000;2022-12-11T04:14:18;112.07;;;19.27;;
8514;SDS011;4295;51.024;7.000;2022-12-11T04:17:02;108.43;;;19.57;;
8514;SDS011;4295;51.024;7.000;2022-12-11T04:19:27;111.87;;;21.17;;
8514;SDS011;4295;51.024;7.000;2022-12-11T04:22:12;106.30;;;18.00;;
8514;SDS011;4295;51.024;7.000;2022-12-11T04:24:58;123.00;;;19.50;;
8514;SDS011;4295;51.024;7.000;2022-12-11T04:27:24;108.17;;;19.10;;
8514;SDS011;4295;51.024;7.000;2022-12-11T04:30:10;108.23;;;18.37;;
8514;SDS011;4295;51.024;7.000;2022-12-11T04:32:38;111.40;;;19.30;;
8514;SDS011;4295;51.024;7.000;2022-12-11T04:35:04;112.50;;;18.00;;
8514;SDS011;4295;51.024;7.000;2022-12-11T04:37:31;110.53;;;19.20;;
8514;SDS011;4295;51.024;7.000;2022-12-11T04:39:57;108.87;;;19.37;;
8514;SDS011;4295;51.024;7.000;2022-12-11T04:42:22;101.60;;;16.73;;
8514;SDS011;4295;51.024;7.000;2022-12-11T04:44:48;118.27;;;21.07;;
8514;SDS011;4295;51.024;7.000;2022-12-11T04:47:13;124.27;;;20.70;;
8514;SDS011;4295;51.024;7.000;2022-12-11T04:49:38;115.47;;;20.97;;
8514;SDS011;4295;51.024;7.000;2022-12-11T04:52:04;109.43;;;20.27;;
8514;SDS011;4295;51.024;7.000;2022-12-11T04:54:30;116.10;;;21.30;;
8514;SDS011;4295;51.024;7.000;2022-12-11T04:56:56;118.93;;;21.90;;
8514;SDS011;4295;51.024;7.000;2022-12-11T04:59:22;116.27;;;19.67;;
8514;SDS011;4295;51.024;7.000;2022-12-11T05:01:47;114.73;;;20.17;;
8514;SDS011;4295;51.024;7.000;2022-12-11T05:04:12;122.70;;;21.60;;
8514;SDS011;4295;51.024;7.000;2022-12-11T05:06:38;121.87;;;20.87;;
8514;SDS011;4295;51.024;7.000;2022-12-11T05:09:03;115.43;;;20.60;;
8514;SDS011;4295;51.024;7.000;2022-12-11T05:11:29;113.83;;;19.50;;
8514;SDS011;4295;51.024;7.000;2022-12-11T05:13:54;107.40;;;19.87;;
8514;SDS011;4295;51.024;7.000;2022-12-11T05:16:19;109.50;;;18.47;;
8514;SDS011;4295;51.024;7.000;2022-12-11T05:18:45;113.87;;;20.03;;
8514;SDS011;4295;51.024;7.000;2022-12-11T05:21:12;109.03;;;18.73;;
8514;SDS011;4295;51.024;7.000;2022-12-11T05:23:38;109.50;;;18.33;;
8514;SDS011;4295;51.024;7.000;2022-12-11T05:26:06;106.57;;;18.73;;
8514;SDS011;4295;51.024;7.000;2022-12-11T05:28:35;117.13;;;17.63;;
8514;SDS011;4295;51.024;7.000;2022-12-11T05:31:03;117.83;;;18.37;;
8514;SDS011;4295;51.024;7.000;2022-12-11T05:33:31;111.83;;;20.57;;
8514;SDS011;4295;51.024;7.000;2022-12-11T05:35:58;109.97;;;19.07;;
8514;SDS011;4295;51.024;7.000;2022-12-11T05:38:23;109.77;;;18.13;;
8514;SDS011;4295;51.024;7.000;2022-12-11T05:40:56;110.93;;;19.17;;
8514;SDS011;4295;51.024;7.000;2022-12-11T05:43:23;112.73;;;19.03;;
8514;SDS011;4295;51.024;7.000;2022-12-11T05:45:48;108.80;;;18.40;;
8514;SDS011;4295;51.024;7.000;2022-12-11T05:48:13;105.63;;;17.97;;
8514;SDS011;4295;51.024;7.000;2022-12-11T05:50:39;110.27;;;18.23;;
8514;SDS011;4295;51.024;7.000;2022-12-11T05:53:04;104.77;;;18.37;;
8514;SDS011;4295;51.024;7.000;2022-12-11T05:55:32;102.13;;;17.23;;
8514;SDS011;4295;51.024;7.000;2022-12-11T05:57:58;102.07;;;17.03;;
8514;SDS011;4295;51.024;7.000;2022-12-11T06:00:24;110.50;;;19.73;;
8514;SDS011;4295;51.024;7.000;2022-12-11T06:02:49;100.23;;;16.37;;
8514;SDS011;4295;51.024;7.000;2022-12-11T06:05:14;110.47;;;17.83;;
8514;SDS011;4295;51.024;7.000;2022-12-11T06:07:40;109.47;;;17.50;;
8514;SDS011;4295;51.024;7.000;2022-12-11T06:10:05;105.80;;;16.57;;
8514;SDS011;4295;51.024;7.000;2022-12-11T06:12:31;104.67;;;17.00;;
8514;SDS011;4295;51.024;7.000;2022-12-11T06:14:56;106.67;;;16.53;;
8514;SDS011;4295;51.024;7.000;2022-12-11T06:17:22;104.60;;;18.23;;
8514;SDS011;4295;51.024;7.000;2022-12-11T06:19:47;100.60;;;16.43;;
8514;SDS011;4295;51.024;7.000;2022-12-11T06:22:12;101.83;;;15.70;;
8514;SDS011;4295;51.024;7.000;2022-12-11T06:24:38;105.20;;;17.00;;
8514;SDS011;4295;51.024;7.000;2022-12-11T06:27:03;108.43;;;18.90;;
8514;SDS011;4295;51.024;7.000;2022-12-11T06:29:29;105.30;;;18.13;;
8514;SDS011;4295;51.024;7.000;2022-12-11T06:31:54;101.07;;;18.10;;
8514;SDS011;4295;51.024;7.000;2022-12-11T06:34:19;98.80;;;16.00;;
8514;SDS011;4295;51.024;7.000;2022-12-11T06:36:45;101.33;;;16.37;;
8514;SDS011;4295;51.024;7.000;2022-12-11T06:39:10;97.57;;;16.00;;
8514;SDS011;4295;51.024;7.000;2022-12-11T06:41:36;98.90;;;16.10;;
8514;SDS011;4295;51.024;7.000;2022-12-11T06:44:01;95.70;;;14.00;;
8514;SDS011;4295;51.024;7.000;2022-12-11T06:46:27;94.47;;;15.50;;
8514;SDS011;4295;51.024;7.000;2022-12-11T06:48:52;96.23;;;16.10;;
8514;SDS011;4295;51.024;7.000;2022-12-11T06:51:18;94.20;;;15.37;;
8514;SDS011;4295;51.024;7.000;2022-12-11T06:53:49;99.80;;;17.00;;
8514;SDS011;4295;51.024;7.000;2022-12-11T06:56:16;94.60;;;15.83;;
8514;SDS011;4295;51.024;7.000;2022-12-11T06:58:42;89.90;;;13.13;;
8514;SDS011;4295;51.024;7.000;2022-12-11T07:01:13;94.17;;;13.77;;
8514;SDS011;4295;51.024;7.000;2022-12-11T07:03:40;95.30;;;15.40;;
8514;SDS011;4295;51.024;7.000;2022-12-11T07:06:06;98.50;;;16.23;;
8514;SDS011;4295;51.024;7.000;2022-12-11T07:08:31;94.17;;;14.77;;
8514;SDS011;4295;51.024;7.000;2022-12-11T07:11:07;95.73;;;15.60;;
8514;SDS011;4295;51.024;7.000;2022-12-11T07:13:36;91.70;;;14.90;;
8514;SDS011;4295;51.024;7.000;2022-12-11T07:16:02;93.50;;;14.93;;
8514;SDS011;4295;51.024;7.000;2022-12-11T07:18:29;95.30;;;14.80;;
8514;SDS011;4295;51.024;7.000;2022-12-11T07:20:57;94.93;;;15.23;;
8514;SDS011;4295;51.024;7.000;2022-12-11T07:23:24;93.97;;;14.80;;
8514;SDS011;4295;51.024;7.000;2022-12-11T07:25:50;90.73;;;14.43;;
8514;SDS011;4295;51.024;7.000;2022-12-11T07:28:16;93.20;;;15.57;;
8514;SDS011;4295;51.024;7.000;2022-12-11T07:30:41;92.17;;;14.17;;
8514;SDS011;4295;51.024;7.000;2022-12-11T07:33:07;99.40;;;15.43;;
8514;SDS011;4295;51.024;7.000;2022-12-11T07:35:33;96.90;;;15.30;;
8514;SDS011;4295;51.024;7.000;2022-12-11T07:37:59;96.23;;;14.70;;
8514;SDS011;4295;51.024;7.000;2022-12-11T07:40:24;90.73;;;15.00;;
8514;SDS011;4295;51.024;7.000;2022-12-11T07:42:50;97.23;;;15.10;;
8514;SDS011;4295;51.024;7.000;2022-12-11T07:45:15;92.93;;;13.93;;
8514;SDS011;4295;51.024;7.000;2022-12-11T07:47:40;92.57;;;14.40;;
8514;SDS011;4295;51.024;7.000;2022-12-11T07:50:06;91.00;;;14.37;;
8514;SDS011;4295;51.024;7.000;2022-12-11T07:52:32;95.43;;;14.27;;
8514;SDS011;4295;51.024;7.000;2022-12-11T07:54:58;98.13;;;14.60;;
8514;SDS011;4295;51.024;7.000;2022-12-11T07:57:23;90.47;;;13.87;;
8514;SDS011;4295;51.024;7.000;2022-12-11T07:59:48;90.40;;;14.17;;
8514;SDS011;4295;51.024;7.000;2022-12-11T08:02:14;89.63;;;14.07;;
8514;SDS011;4295;51.024;7.000;2022-12-11T08:04:39;97.57;;;13.60;;
8514;SDS011;4295;51.024;7.000;2022-12-11T08:07:05;87.30;;;12.77;;
8514;SDS011;4295;51.024;7.000;2022-12-11T08:09:30;89.27;;;12.90;;
8514;SDS011;4295;51.024;7.000;2022-12-11T08:11:55;87.37;;;12.50;;
8514;SDS011;4295;51.024;7.000;2022-12-11T08:14:21;88.30;;;12.90;;
8514;SDS011;4295;51.024;7.000;2022-12-11T08:16:46;88.13;;;13.90;;
8514;SDS011;4295;51.024;7.000;2022-12-11T08:19:13;87.73;;;13.10;;
8514;SDS011;4295;51.024;7.000;2022-12-11T08:21:38;88.17;;;11.90;;
8514;SDS011;4295;51.024;7.000;2022-12-11T08:24:04;93.80;;;12.87;;
8514;SDS011;4295;51.024;7.000;2022-12-11T08:26:30;87.30;;;12.37;;
8514;SDS011;4295;51.024;7.000;2022-12-11T08:28:57;86.70;;;13.30;;
8514;SDS011;4295;51.024;7.000;2022-12-11T08:31:23;89.47;;;13.20;;
8514;SDS011;4295;51.024;7.000;2022-12-11T08:33:49;85.17;;;12.60;;
8514;SDS011;4295;51.024;7.000;2022-12-11T08:36:17;88.40;;;12.90;;
8514;SDS011;4295;51.024;7.000;2022-12-11T08:38:44;87.53;;;12.73;;
8514;SDS011;4295;51.024;7.000;2022-12-11T08:41:11;87.93;;;13.50;;
8514;SDS011;4295;51.024;7.000;2022-12-11T08:43:39;90.27;;;13.80;;
8514;SDS011;4295;51.024;7.000;2022-12-11T08:46:05;90.80;;;13.60;;
8514;SDS011;4295;51.024;7.000;2022-12-11T08:48:31;91.57;;;14.93;;
8514;SDS011;4295;51.024;7.000;2022-12-11T08:50:58;93.60;;;13.70;;
8514;SDS011;4295;51.024;7.000;2022-12-11T08:53:30;93.57;;;13.33;;
8514;SDS011;4295;51.024;7.000;2022-12-11T08:56:03;89.63;;;13.43;;
8514;SDS011;4295;51.024;7.000;2022-12-11T08:58:34;92.90;;;13.40;;
8514;SDS011;4295;51.024;7.000;2022-12-11T09:01:04;92.97;;;14.97;;
8514;SDS011;4295;51.024;7.000;2022-12-11T09:03:31;92.17;;;13.23;;
8514;SDS011;4295;51.024;7.000;2022-12-11T09:05:57;89.03;;;13.47;;
8514;SDS011;4295;51.024;7.000;2022-12-11T09:08:23;89.97;;;13.60;;
8514;SDS011;4295;51.024;7.000;2022-12-11T09:10:48;89.60;;;13.53;;
8514;SDS011;4295;51.024;7.000;2022-12-11T09:13:13;90.27;;;12.90;;
8514;SDS011;4295;51.024;7.000;2022-12-11T09:15:39;91.67;;;14.07;;
8514;SDS011;4295;51.024;7.000;2022-12-11T09:18:05;93.63;;;12.90;;
8514;SDS011;4295;51.024;7.000;2022-12-11T09:20:30;92.17;;;13.80;;
8514;SDS011;4295;51.024;7.000;2022-12-11T09:22:55;92.13;;;13.90;;
8514;SDS011;4295;51.024;7.000;2022-12-11T09:25:21;91.13;;;13.03;;
8514;SDS011;4295;51.024;7.000;2022-12-11T09:27:46;92.97;;;14.63;;
8514;SDS011;4295;51.024;7.000;2022-12-11T09:30:12;88.47;;;12.70;;
8514;SDS011;4295;51.024;7.000;2022-12-11T09:32:37;95.10;;;13.90;;
8514;SDS011;4295;51.024;7.000;2022-12-11T09:35:03;91.17;;;14.63;;
8514;SDS011;4295;51.024;7.000;2022-12-11T09:37:29;94.07;;;14.30;;
8514;SDS011;4295;51.024;7.000;2022-12-11T09:39:54;88.57;;;12.83;;
8514;SDS011;4295;51.024;7.000;2022-12-11T09:42:22;90.07;;;13.40;;
8514;SDS011;4295;51.024;7.000;2022-12-11T09:45:09;92.97;;;13.37;;
8514;SDS011;4295;51.024;7.000;2022-12-11T09:47:44;93.77;;;15.00;;
8514;SDS011;4295;51.024;7.000;2022-12-11T09:50:30;89.27;;;14.10;;
8514;SDS011;4295;51.024;7.000;2022-12-11T10:07:21;94.30;;;14.43;;
8514;SDS011;4295;51.024;7.000;2022-12-11T10:10:02;91.13;;;14.67;;
8514;SDS011;4295;51.024;7.000;2022-12-11T10:18:13;95.07;;;15.23;;
8514;SDS011;4295;51.024;7.000;2022-12-11T10:20:45;91.30;;;15.07;;
8514;SDS011;4295;51.024;7.000;2022-12-11T10:23:15;91.30;;;15.30;;
8514;SDS011;4295;51.024;7.000;2022-12-11T10:25:45;90.53;;;15.63;;
8514;SDS011;4295;51.024;7.000;2022-12-11T10:28:26;91.93;;;15.23;;
8514;SDS011;4295;51.024;7.000;2022-12-11T10:31:05;95.37;;;15.63;;
8514;SDS011;4295;51.024;7.000;2022-12-11T10:33:43;94.90;;;16.00;;
8514;SDS011;4295;51.024;7.000;2022-12-11T10:36:29;104.07;;;17.70;;
8514;SDS011;4295;51.024;7.000;2022-12-11T10:38:55;100.70;;;16.87;;
8514;SDS011;4295;51.024;7.000;2022-12-11T10:41:22;108.00;;;17.73;;
8514;SDS011;4295;51.024;7.000;2022-12-11T10:43:51;108.60;;;18.90;;
8514;SDS011;4295;51.024;7.000;2022-12-11T10:48:54;97.90;;;17.80;;
8514;SDS011;4295;51.024;7.000;2022-12-11T10:51:25;98.37;;;17.93;;
8514;SDS011;4295;51.024;7.000;2022-12-11T10:54:00;103.57;;;17.40;;
8514;SDS011;4295;51.024;7.000;2022-12-11T10:56:43;101.93;;;17.70;;
8514;SDS011;4295;51.024;7.000;2022-12-11T11:01:58;97.07;;;15.63;;
8514;SDS011;4295;51.024;7.000;2022-12-11T11:04:31;101.20;;;17.17;;
8514;SDS011;4295;51.024;7.000;2022-12-11T11:07:01;100.77;;;17.07;;
8514;SDS011;4295;51.024;7.000;2022-12-11T11:09:36;103.00;;;17.47;;
8514;SDS011;4295;51.024;7.000;2022-12-11T11:12:02;116.73;;;19.97;;
8514;SDS011;4295;51.024;7.000;2022-12-11T11:14:27;107.33;;;19.33;;
8514;SDS011;4295;51.024;7.000;2022-12-11T11:16:54;119.27;;;21.30;;
8514;SDS011;4295;51.024;7.000;2022-12-11T11:22:26;116.33;;;22.17;;
8514;SDS011;4295;51.024;7.000;2022-12-11T11:24:45;115.63;;;21.53;;
8514;SDS011;4295;51.024;7.000;2022-12-11T11:27:28;109.70;;;20.50;;
8514;SDS011;4295;51.024;7.000;2022-12-11T11:30:01;112.03;;;20.50;;
8514;SDS011;4295;51.024;7.000;2022-12-11T11:32:38;118.43;;;21.00;;
8514;SDS011;4295;51.024;7.000;2022-12-11T11:37:37;114.43;;;19.57;;
8514;SDS011;4295;51.024;7.000;2022-12-11T11:40:15;126.10;;;23.87;;
8514;SDS011;4295;51.024;7.000;2022-12-11T11:42:48;109.03;;;19.67;;
8514;SDS011;4295;51.024;7.000;2022-12-11T11:45:23;115.43;;;21.83;;
8514;SDS011;4295;51.024;7.000;2022-12-11T11:50:32;131.30;;;23.20;;
8514;SDS011;4295;51.024;7.000;2022-12-11T11:55:36;122.67;;;24.73;;
8514;SDS011;4295;51.024;7.000;2022-12-11T11:58:47;121.67;;;22.17;;
8514;SDS011;4295;51.024;7.000;2022-12-11T12:01:21;116.27;;;21.50;;
8514;SDS011;4295;51.024;7.000;2022-12-11T12:03:47;111.07;;;19.90;;
8514;SDS011;4295;51.024;7.000;2022-12-11T12:06:24;118.63;;;21.50;;
8514;SDS011;4295;51.024;7.000;2022-12-11T12:09:05;109.20;;;19.97;;
8514;SDS011;4295;51.024;7.000;2022-12-11T12:11:42;114.03;;;20.23;;
8514;SDS011;4295;51.024;7.000;2022-12-11T12:14:36;110.40;;;19.60;;
8514;SDS011;4295;51.024;7.000;2022-12-11T12:28:22;111.50;;;20.40;;
8514;SDS011;4295;51.024;7.000;2022-12-11T12:47:32;110.70;;;17.67;;
8514;SDS011;4295;51.024;7.000;2022-12-11T12:49:59;105.90;;;17.63;;
8514;SDS011;4295;51.024;7.000;2022-12-11T12:52:31;102.53;;;16.40;;
8514;SDS011;4295;51.024;7.000;2022-12-11T12:54:58;107.80;;;17.13;;
8514;SDS011;4295;51.024;7.000;2022-12-11T13:00:08;103.13;;;16.90;;
8514;SDS011;4295;51.024;7.000;2022-12-11T13:02:36;103.63;;;15.90;;
8514;SDS011;4295;51.024;7.000;2022-12-11T13:05:21;99.17;;;15.67;;
8514;SDS011;4295;51.024;7.000;2022-12-11T13:07:49;99.73;;;17.17;;
8514;SDS011;4295;51.024;7.000;2022-12-11T13:10:22;98.03;;;17.37;;
8514;SDS011;4295;51.024;7.000;2022-12-11T13:12:59;98.67;;;15.80;;
8514;SDS011;4295;51.024;7.000;2022-12-11T13:17:58;103.20;;;14.90;;
8514;SDS011;4295;51.024;7.000;2022-12-11T13:20:26;105.87;;;15.97;;
8514;SDS011;4295;51.024;7.000;2022-12-11T13:23:14;97.07;;;13.40;;
8514;SDS011;4295;51.024;7.000;2022-12-11T13:25:48;94.57;;;14.93;;
8514;SDS011;4295;51.024;7.000;2022-12-11T13:28:22;93.30;;;13.47;;
8514;SDS011;4295;51.024;7.000;2022-12-11T13:33:41;93.47;;;13.80;;
8514;SDS011;4295;51.024;7.000;2022-12-11T13:38:35;92.97;;;14.70;;
8514;SDS011;4295;51.024;7.000;2022-12-11T13:41:02;98.83;;;13.73;;
8514;SDS011;4295;51.024;7.000;2022-12-11T13:43:35;95.50;;;13.53;;
8514;SDS011;4295;51.024;7.000;2022-12-11T13:46:03;96.23;;;13.50;;
8514;SDS011;4295;51.024;7.000;2022-12-11T13:51:26;91.80;;;12.20;;
8514;SDS011;4295;51.024;7.000;2022-12-11T13:54:03;92.80;;;12.90;;
8514;SDS011;4295;51.024;7.000;2022-12-11T13:56:40;87.30;;;12.90;;
8514;SDS011;4295;51.024;7.000;2022-12-11T13:59:23;92.23;;;13.60;;
8514;SDS011;4295;51.024;7.000;2022-12-11T14:01:54;91.03;;;12.50;;
8514;SDS011;4295;51.024;7.000;2022-12-11T14:04:22;90.17;;;13.00;;
8514;SDS011;4295;51.024;7.000;2022-12-11T14:06:49;93.17;;;13.20;;
8514;SDS011;4295;51.024;7.000;2022-12-11T14:09:16;89.27;;;13.20;;
8514;SDS011;4295;51.024;7.000;2022-12-11T14:11:45;94.37;;;13.60;;
8514;SDS011;4295;51.024;7.000;2022-12-11T14:14:20;91.90;;;12.07;;
8514;SDS011;4295;51.024;7.000;2022-12-11T14:16:49;87.10;;;12.17;;
8514;SDS011;4295;51.024;7.000;2022-12-11T14:19:19;93.80;;;13.30;;
8514;SDS011;4295;51.024;7.000;2022-12-11T14:21:56;91.90;;;13.50;;
8514;SDS011;4295;51.024;7.000;2022-12-11T14:24:26;91.27;;;13.97;;
8514;SDS011;4295;51.024;7.000;2022-12-11T14:26:53;89.97;;;12.47;;
8514;SDS011;4295;51.024;7.000;2022-12-11T14:29:26;91.27;;;14.30;;
8514;SDS011;4295;51.024;7.000;2022-12-11T14:32:01;90.37;;;14.40;;
8514;SDS011;4295;51.024;7.000;2022-12-11T14:34:30;89.83;;;13.10;;
8514;SDS011;4295;51.024;7.000;2022-12-11T14:37:00;94.93;;;14.50;;
8514;SDS011;4295;51.024;7.000;2022-12-11T14:39:30;94.57;;;14.40;;
8514;SDS011;4295;51.024;7.000;2022-12-11T14:45:23;91.67;;;14.17;;
8514;SDS011;4295;51.024;7.000;2022-12-11T14:47:41;94.93;;;15.20;;
8514;SDS011;4295;51.024;7.000;2022-12-11T14:52:46;99.50;;;15.50;;
8514;SDS011;4295;51.024;7.000;2022-12-11T14:55:19;93.97;;;15.00;;
8514;SDS011;4295;51.024;7.000;2022-12-11T14:57:49;103.30;;;15.97;;
8514;SDS011;4295;51.024;7.000;2022-12-11T15:00:30;94.30;;;15.17;;
8514;SDS011;4295;51.024;7.000;2022-12-11T15:03:20;92.70;;;14.37;;
8514;SDS011;4295;51.024;7.000;2022-12-11T15:05:51;99.50;;;14.53;;
8514;SDS011;4295;51.024;7.000;2022-12-11T15:13:45;91.00;;;14.57;;
8514;SDS011;4295;51.024;7.000;2022-12-11T15:16:17;93.53;;;15.63;;
8514;SDS011;4295;51.024;7.000;2022-12-11T15:18:46;98.27;;;14.43;;
8514;SDS011;4295;51.024;7.000;2022-12-11T15:21:13;98.00;;;16.00;;
8514;SDS011;4295;51.024;7.000;2022-12-11T15:26:35;95.57;;;14.90;;
8514;SDS011;4295;51.024;7.000;2022-12-11T15:29:20;100.80;;;15.03;;
8514;SDS011;4295;51.024;7.000;2022-12-11T15:31:58;95.53;;;14.60;;
8514;SDS011;4295;51.024;7.000;2022-12-11T15:34:25;93.53;;;14.90;;
8514;SDS011;4295;51.024;7.000;2022-12-11T15:36:55;97.70;;;15.60;;
8514;SDS011;4295;51.024;7.000;2022-12-11T15:39:20;95.10;;;14.77;;
8514;SDS011;4295;51.024;7.000;2022-12-11T15:41:46;107.13;;;18.90;;
8514;SDS011;4295;51.024;7.000;2022-12-11T15:44:20;107.27;;;16.60;;
8514;SDS011;4295;51.024;7.000;2022-12-11T15:46:46;97.93;;;16.40;;
8514;SDS011;4295;51.024;7.000;2022-12-11T15:49:11;96.83;;;15.40;;
8514;SDS011;4295;51.024;7.000;2022-12-11T15:51:37;101.27;;;15.97;;
8514;SDS011;4295;51.024;7.000;2022-12-11T15:54:03;102.13;;;16.73;;
8514;SDS011;4295;51.024;7.000;2022-12-11T15:56:28;94.53;;;15.50;;
8514;SDS011;4295;51.024;7.000;2022-12-11T15:58:54;98.07;;;14.70;;
8514;SDS011;4295;51.024;7.000;2022-12-11T16:01:25;94.60;;;14.43;;
8514;SDS011;4295;51.024;7.000;2022-12-11T16:03:51;99.07;;;15.30;;
8514;SDS011;4295;51.024;7.000;2022-12-11T16:06:16;99.53;;;16.87;;
8514;SDS011;4295;51.024;7.000;2022-12-11T16:08:41;99.40;;;17.23;;
8514;SDS011;4295;51.024;7.000;2022-12-11T16:11:08;95.73;;;15.60;;
8514;SDS011;4295;51.024;7.000;2022-12-11T16:13:37;97.30;;;16.10;;
8514;SDS011;4295;51.024;7.000;2022-12-11T16:16:02;97.40;;;15.93;;
8514;SDS011;4295;51.024;7.000;2022-12-11T16:18:29;93.70;;;13.53;;
8514;SDS011;4295;51.024;7.000;2022-12-11T16:20:55;98.10;;;13.73;;
8514;SDS011;4295;51.024;7.000;2022-12-11T16:23:21;97.60;;;15.17;;
8514;SDS011;4295;51.024;7.000;2022-12-11T16:25:46;99.67;;;15.90;;
8514;SDS011;4295;51.024;7.000;2022-12-11T16:28:13;100.17;;;15.50;;
8514;SDS011;4295;51.024;7.000;2022-12-11T16:30:41;103.30;;;16.07;;
8514;SDS011;4295;51.024;7.000;2022-12-11T16:33:07;95.53;;;14.60;;
8514;SDS011;4295;51.024;7.000;2022-12-11T16:35:33;97.30;;;15.60;;
8514;SDS011;4295;51.024;7.000;2022-12-11T16:37:59;92.50;;;14.10;;
8514;SDS011;4295;51.024;7.000;2022-12-11T16:40:24;98.27;;;15.43;;
8514;SDS011;4295;51.024;7.000;2022-12-11T16:42:50;94.30;;;14.90;;
8514;SDS011;4295;51.024;7.000;2022-12-11T16:45:17;95.63;;;15.50;;